Terminal Aerodrome Forecast
Issued by NWS Boston, MA

Home | Current Version | Previous Version | Text Only | Print | Product List | Glossary On
Versions: 1 2 3 4 5 6 7 8 9 10 11 12 13 14 15 16 17 18 19 20 21 22 23 24 25
000
FTUS41 KBOX 242320
TAFBOS
TAF
KBOS 242320Z 2500/2606 02006KT 3SM BR OVC006
     FM250400 34004KT 5SM BR OVC010
     FM250800 27004KT P6SM BKN020
     FM251000 25004KT P6SM SCT020 BKN250
     FM251800 26008KT P6SM FEW200=

USA.gov is the U.S. government's official web portal to all federal, state and local government web resources and services.